sensor_id;sensor_type;location;lat;lon;timestamp;temperature;humidity
43651;DHT22;29247;50.944;5.382;2024-02-23T00:01:03;21.80;64.10
43651;DHT22;29247;50.944;5.382;2024-02-23T00:03:32;21.80;64.20
43651;DHT22;29247;50.944;5.382;2024-02-23T00:05:59;21.80;64.20
43651;DHT22;29247;50.944;5.382;2024-02-23T00:08:25;21.80;64.20
43651;DHT22;29247;50.944;5.382;2024-02-23T00:10:51;21.80;64.20
43651;DHT22;29247;50.944;5.382;2024-02-23T00:13:19;21.80;64.10
43651;DHT22;29247;50.944;5.382;2024-02-23T00:15:44;21.80;64.20
43651;DHT22;29247;50.944;5.382;2024-02-23T00:18:10;21.80;64.20
43651;DHT22;29247;50.944;5.382;2024-02-23T00:20:40;21.80;64.20
43651;DHT22;29247;50.944;5.382;2024-02-23T00:23:06;21.80;64.20
43651;DHT22;29247;50.944;5.382;2024-02-23T00:25:32;21.80;64.30
43651;DHT22;29247;50.944;5.382;2024-02-23T00:27:57;21.80;64.30
43651;DHT22;29247;50.944;5.382;2024-02-23T00:30:25;21.70;64.30
43651;DHT22;29247;50.944;5.382;2024-02-23T00:32:52;21.70;64.30
43651;DHT22;29247;50.944;5.382;2024-02-23T00:35:21;21.70;64.30
43651;DHT22;29247;50.944;5.382;2024-02-23T00:37:49;21.70;64.30
43651;DHT22;29247;50.944;5.382;2024-02-23T00:40:15;21.70;64.30
43651;DHT22;29247;50.944;5.382;2024-02-23T00:42:43;21.70;64.30
43651;DHT22;29247;50.944;5.382;2024-02-23T00:45:11;21.70;64.30
43651;DHT22;29247;50.944;5.382;2024-02-23T00:47:37;21.70;64.40
43651;DHT22;29247;50.944;5.382;2024-02-23T00:50:03;21.70;64.40
43651;DHT22;29247;50.944;5.382;2024-02-23T00:52:29;21.60;64.40
43651;DHT22;29247;50.944;5.382;2024-02-23T00:54:54;21.60;64.40
43651;DHT22;29247;50.944;5.382;2024-02-23T00:57:20;21.60;64.40
43651;DHT22;29247;50.944;5.382;2024-02-23T00:59:52;21.60;64.40
43651;DHT22;29247;50.944;5.382;2024-02-23T01:02:18;21.60;64.40
43651;DHT22;29247;50.944;5.382;2024-02-23T01:04:44;21.60;64.40
43651;DHT22;29247;50.944;5.382;2024-02-23T01:07:09;21.60;64.50
43651;DHT22;29247;50.944;5.382;2024-02-23T01:09:37;21.60;64.40
43651;DHT22;29247;50.944;5.382;2024-02-23T01:12:06;21.60;64.40
43651;DHT22;29247;50.944;5.382;2024-02-23T01:14:32;21.60;64.40
43651;DHT22;29247;50.944;5.382;2024-02-23T01:16:58;21.60;64.40
43651;DHT22;29247;50.944;5.382;2024-02-23T01:19:26;21.60;64.50
43651;DHT22;29247;50.944;5.382;2024-02-23T01:21:51;21.50;64.40
43651;DHT22;29247;50.944;5.382;2024-02-23T01:24:28;21.50;64.40
43651;DHT22;29247;50.944;5.382;2024-02-23T01:26:55;21.50;64.40
43651;DHT22;29247;50.944;5.382;2024-02-23T01:29:21;21.50;64.40
43651;DHT22;29247;50.944;5.382;2024-02-23T01:31:50;21.50;64.40
43651;DHT22;29247;50.944;5.382;2024-02-23T01:34:19;21.50;64.50
43651;DHT22;29247;50.944;5.382;2024-02-23T01:36:47;21.50;64.40
43651;DHT22;29247;50.944;5.382;2024-02-23T01:39:13;21.50;64.50
43651;DHT22;29247;50.944;5.382;2024-02-23T01:41:39;21.50;64.40
43651;DHT22;29247;50.944;5.382;2024-02-23T01:44:04;21.40;64.30
43651;DHT22;29247;50.944;5.382;2024-02-23T01:46:31;21.50;64.50
43651;DHT22;29247;50.944;5.382;2024-02-23T01:48:57;21.40;64.40
43651;DHT22;29247;50.944;5.382;2024-02-23T01:51:24;21.40;64.40
43651;DHT22;29247;50.944;5.382;2024-02-23T01:53:51;21.40;64.40
43651;DHT22;29247;50.944;5.382;2024-02-23T01:56:17;21.40;64.30
43651;DHT22;29247;50.944;5.382;2024-02-23T01:58:45;21.40;64.30
43651;DHT22;29247;50.944;5.382;2024-02-23T02:01:11;21.40;64.40
43651;DHT22;29247;50.944;5.382;2024-02-23T02:03:40;21.40;65.10
43651;DHT22;29247;50.944;5.382;2024-02-23T02:06:10;21.30;64.30
43651;DHT22;29247;50.944;5.382;2024-02-23T02:08:37;21.40;64.40
43651;DHT22;29247;50.944;5.382;2024-02-23T02:11:05;21.30;64.30
43651;DHT22;29247;50.944;5.382;2024-02-23T02:13:31;21.30;64.30
43651;DHT22;29247;50.944;5.382;2024-02-23T02:16:01;21.30;64.40
43651;DHT22;29247;50.944;5.382;2024-02-23T02:18:27;21.30;64.30
43651;DHT22;29247;50.944;5.382;2024-02-23T02:20:57;21.30;64.30
43651;DHT22;29247;50.944;5.382;2024-02-23T02:23:23;21.30;64.30
43651;DHT22;29247;50.944;5.382;2024-02-23T02:25:56;21.30;64.30
43651;DHT22;29247;50.944;5.382;2024-02-23T02:28:25;21.30;64.30
43651;DHT22;29247;50.944;5.382;2024-02-23T02:30:54;21.30;64.40
43651;DHT22;29247;50.944;5.382;2024-02-23T02:33:21;21.20;63.70
43651;DHT22;29247;50.944;5.382;2024-02-23T02:35:47;21.20;63.10
43651;DHT22;29247;50.944;5.382;2024-02-23T02:38:13;21.20;63.20
43651;DHT22;29247;50.944;5.382;2024-02-23T02:40:41;21.20;63.30
43651;DHT22;29247;50.944;5.382;2024-02-23T02:43:07;21.20;63.40
43651;DHT22;29247;50.944;5.382;2024-02-23T02:45:33;21.20;63.30
43651;DHT22;29247;50.944;5.382;2024-02-23T02:48:05;21.10;63.20
43651;DHT22;29247;50.944;5.382;2024-02-23T02:50:31;21.10;63.10
43651;DHT22;29247;50.944;5.382;2024-02-23T02:52:59;21.00;63.00
43651;DHT22;29247;50.944;5.382;2024-02-23T02:55:25;21.10;63.10
43651;DHT22;29247;50.944;5.382;2024-02-23T02:57:53;21.10;63.10
43651;DHT22;29247;50.944;5.382;2024-02-23T03:00:18;21.10;63.00
43651;DHT22;29247;50.944;5.382;2024-02-23T03:02:44;21.10;62.90
43651;DHT22;29247;50.944;5.382;2024-02-23T03:05:10;21.10;62.80
43651;DHT22;29247;50.944;5.382;2024-02-23T03:08:04;21.00;62.70
43651;DHT22;29247;50.944;5.382;2024-02-23T03:10:32;21.10;62.70
43651;DHT22;29247;50.944;5.382;2024-02-23T03:12:58;21.00;62.60
43651;DHT22;29247;50.944;5.382;2024-02-23T03:15:39;21.00;62.60
43651;DHT22;29247;50.944;5.382;2024-02-23T03:18:05;21.00;62.50
43651;DHT22;29247;50.944;5.382;2024-02-23T03:20:30;21.00;62.40
43651;DHT22;29247;50.944;5.382;2024-02-23T03:22:56;21.00;62.40
43651;DHT22;29247;50.944;5.382;2024-02-23T03:25:22;21.00;62.40
43651;DHT22;29247;50.944;5.382;2024-02-23T03:27:47;21.00;62.30
43651;DHT22;29247;50.944;5.382;2024-02-23T03:30:13;21.00;62.30
43651;DHT22;29247;50.944;5.382;2024-02-23T03:32:39;20.90;62.20
43651;DHT22;29247;50.944;5.382;2024-02-23T03:35:08;20.90;62.20
43651;DHT22;29247;50.944;5.382;2024-02-23T03:37:34;20.90;62.20
43651;DHT22;29247;50.944;5.382;2024-02-23T03:40:04;20.90;62.20
43651;DHT22;29247;50.944;5.382;2024-02-23T03:42:30;20.90;62.00
43651;DHT22;29247;50.944;5.382;2024-02-23T03:44:58;20.90;61.90
43651;DHT22;29247;50.944;5.382;2024-02-23T03:47:26;20.90;61.80
43651;DHT22;29247;50.944;5.382;2024-02-23T03:49:51;20.90;61.80
43651;DHT22;29247;50.944;5.382;2024-02-23T03:52:17;20.90;61.80
43651;DHT22;29247;50.944;5.382;2024-02-23T03:54:43;20.80;61.70
43651;DHT22;29247;50.944;5.382;2024-02-23T03:57:08;20.90;61.80
43651;DHT22;29247;50.944;5.382;2024-02-23T03:59:36;20.80;61.80
43651;DHT22;29247;50.944;5.382;2024-02-23T04:02:03;20.80;61.70
43651;DHT22;29247;50.944;5.382;2024-02-23T04:04:33;20.80;61.60
43651;DHT22;29247;50.944;5.382;2024-02-23T04:07:01;20.80;61.70
43651;DHT22;29247;50.944;5.382;2024-02-23T04:09:27;20.80;61.60
43651;DHT22;29247;50.944;5.382;2024-02-23T04:11:55;20.80;61.50
43651;DHT22;29247;50.944;5.382;2024-02-23T04:14:20;20.80;61.50
43651;DHT22;29247;50.944;5.382;2024-02-23T04:16:48;20.80;61.50
43651;DHT22;29247;50.944;5.382;2024-02-23T04:19:16;20.80;61.50
43651;DHT22;29247;50.944;5.382;2024-02-23T04:21:42;20.80;61.50
43651;DHT22;29247;50.944;5.382;2024-02-23T04:24:08;20.70;61.40
43651;DHT22;29247;50.944;5.382;2024-02-23T04:26:34;20.70;61.40
43651;DHT22;29247;50.944;5.382;2024-02-23T04:28:59;20.70;61.40
43651;DHT22;29247;50.944;5.382;2024-02-23T04:31:25;20.70;61.30
43651;DHT22;29247;50.944;5.382;2024-02-23T04:33:53;20.70;62.00
43651;DHT22;29247;50.944;5.382;2024-02-23T04:36:24;20.70;61.20
43651;DHT22;29247;50.944;5.382;2024-02-23T04:38:49;20.70;61.10
43651;DHT22;29247;50.944;5.382;2024-02-23T04:41:19;20.70;61.10
43651;DHT22;29247;50.944;5.382;2024-02-23T04:43:50;20.60;61.00
43651;DHT22;29247;50.944;5.382;2024-02-23T04:46:16;20.60;61.00
43651;DHT22;29247;50.944;5.382;2024-02-23T04:48:41;20.60;61.00
43651;DHT22;29247;50.944;5.382;2024-02-23T04:51:07;20.60;61.00
43651;DHT22;29247;50.944;5.382;2024-02-23T04:53:38;20.60;60.90
43651;DHT22;29247;50.944;5.382;2024-02-23T04:56:05;20.60;60.90
43651;DHT22;29247;50.944;5.382;2024-02-23T04:58:31;20.60;60.80
43651;DHT22;29247;50.944;5.382;2024-02-23T05:00:57;20.60;60.80
43651;DHT22;29247;50.944;5.382;2024-02-23T05:03:28;20.60;60.80
43651;DHT22;29247;50.944;5.382;2024-02-23T05:05:54;20.60;60.80
43651;DHT22;29247;50.944;5.382;2024-02-23T05:08:22;20.50;60.80
43651;DHT22;29247;50.944;5.382;2024-02-23T05:10:52;20.50;60.70
43651;DHT22;29247;50.944;5.382;2024-02-23T05:13:18;20.50;60.70
43651;DHT22;29247;50.944;5.382;2024-02-23T05:15:44;20.50;60.70
43651;DHT22;29247;50.944;5.382;2024-02-23T05:18:12;20.50;60.70
43651;DHT22;29247;50.944;5.382;2024-02-23T05:20:43;20.50;60.60
43651;DHT22;29247;50.944;5.382;2024-02-23T05:23:08;20.50;60.70
43651;DHT22;29247;50.944;5.382;2024-02-23T05:25:37;20.50;60.60
43651;DHT22;29247;50.944;5.382;2024-02-23T05:28:05;20.50;60.60
43651;DHT22;29247;50.944;5.382;2024-02-23T05:30:30;20.40;60.50
43651;DHT22;29247;50.944;5.382;2024-02-23T05:32:57;20.40;60.50
43651;DHT22;29247;50.944;5.382;2024-02-23T05:35:24;20.40;60.40
43651;DHT22;29247;50.944;5.382;2024-02-23T05:37:55;20.40;60.50
43651;DHT22;29247;50.944;5.382;2024-02-23T05:40:24;20.40;61.30
43651;DHT22;29247;50.944;5.382;2024-02-23T05:42:49;20.40;60.60
43651;DHT22;29247;50.944;5.382;2024-02-23T05:45:15;20.40;60.70
43651;DHT22;29247;50.944;5.382;2024-02-23T05:47:43;20.40;60.90
43651;DHT22;29247;50.944;5.382;2024-02-23T05:50:11;20.40;60.90
43651;DHT22;29247;50.944;5.382;2024-02-23T05:52:39;20.40;60.90
43651;DHT22;29247;50.944;5.382;2024-02-23T05:55:05;20.40;61.10
43651;DHT22;29247;50.944;5.382;2024-02-23T05:57:31;20.50;61.30
43651;DHT22;29247;50.944;5.382;2024-02-23T05:59:57;20.50;61.30
43651;DHT22;29247;50.944;5.382;2024-02-23T06:02:23;20.50;61.30
43651;DHT22;29247;50.944;5.382;2024-02-23T06:04:51;20.50;61.40
43651;DHT22;29247;50.944;5.382;2024-02-23T06:07:16;20.60;61.50
43651;DHT22;29247;50.944;5.382;2024-02-23T06:09:45;20.60;61.40
43651;DHT22;29247;50.944;5.382;2024-02-23T06:12:11;20.60;61.50
43651;DHT22;29247;50.944;5.382;2024-02-23T06:14:42;20.60;61.60
43651;DHT22;29247;50.944;5.382;2024-02-23T06:17:07;20.70;61.70
43651;DHT22;29247;50.944;5.382;2024-02-23T06:19:36;20.70;61.80
43651;DHT22;29247;50.944;5.382;2024-02-23T06:22:01;20.70;61.90
43651;DHT22;29247;50.944;5.382;2024-02-23T06:24:27;20.70;61.90
43651;DHT22;29247;50.944;5.382;2024-02-23T06:26:53;20.70;62.00
43651;DHT22;29247;50.944;5.382;2024-02-23T06:29:21;20.80;62.10
43651;DHT22;29247;50.944;5.382;2024-02-23T06:31:49;20.80;62.20
43651;DHT22;29247;50.944;5.382;2024-02-23T06:34:15;20.80;62.20
43651;DHT22;29247;50.944;5.382;2024-02-23T06:36:44;20.80;62.30
43651;DHT22;29247;50.944;5.382;2024-02-23T06:39:11;20.80;62.40
43651;DHT22;29247;50.944;5.382;2024-02-23T06:41:40;20.80;62.50
43651;DHT22;29247;50.944;5.382;2024-02-23T06:44:11;20.80;62.70
43651;DHT22;29247;50.944;5.382;2024-02-23T06:46:37;20.90;62.90
43651;DHT22;29247;50.944;5.382;2024-02-23T06:49:07;20.90;63.00
43651;DHT22;29247;50.944;5.382;2024-02-23T06:51:33;20.90;63.10
43651;DHT22;29247;50.944;5.382;2024-02-23T06:53:59;20.90;63.20
43651;DHT22;29247;50.944;5.382;2024-02-23T06:56:24;21.00;63.30
43651;DHT22;29247;50.944;5.382;2024-02-23T06:58:50;20.90;63.30
43651;DHT22;29247;50.944;5.382;2024-02-23T07:01:20;21.00;63.50
43651;DHT22;29247;50.944;5.382;2024-02-23T07:03:48;21.00;63.50
43651;DHT22;29247;50.944;5.382;2024-02-23T07:06:16;21.00;63.60
43651;DHT22;29247;50.944;5.382;2024-02-23T07:08:44;21.00;63.60
43651;DHT22;29247;50.944;5.382;2024-02-23T07:11:10;21.00;63.90
43651;DHT22;29247;50.944;5.382;2024-02-23T07:13:36;21.10;64.00
43651;DHT22;29247;50.944;5.382;2024-02-23T07:16:02;21.10;64.10
43651;DHT22;29247;50.944;5.382;2024-02-23T07:18:27;21.20;64.20
43651;DHT22;29247;50.944;5.382;2024-02-23T07:20:56;21.20;64.20
43651;DHT22;29247;50.944;5.382;2024-02-23T07:23:22;21.20;64.20
43651;DHT22;29247;50.944;5.382;2024-02-23T07:25:49;21.20;64.20
43651;DHT22;29247;50.944;5.382;2024-02-23T07:28:21;21.20;64.20
43651;DHT22;29247;50.944;5.382;2024-02-23T07:30:48;21.30;64.30
43651;DHT22;29247;50.944;5.382;2024-02-23T07:33:14;21.30;64.30
43651;DHT22;29247;50.944;5.382;2024-02-23T07:35:39;21.30;64.40
43651;DHT22;29247;50.944;5.382;2024-02-23T07:38:07;21.40;64.30
43651;DHT22;29247;50.944;5.382;2024-02-23T07:40:33;21.40;64.40
43651;DHT22;29247;50.944;5.382;2024-02-23T07:42:59;21.40;64.30
43651;DHT22;29247;50.944;5.382;2024-02-23T07:45:24;21.40;65.00
43651;DHT22;29247;50.944;5.382;2024-02-23T07:47:51;21.50;64.20
43651;DHT22;29247;50.944;5.382;2024-02-23T07:50:16;21.50;64.20
43651;DHT22;29247;50.944;5.382;2024-02-23T07:52:44;21.50;64.20
43651;DHT22;29247;50.944;5.382;2024-02-23T07:55:12;21.50;64.20
43651;DHT22;29247;50.944;5.382;2024-02-23T07:57:43;21.50;64.20
43651;DHT22;29247;50.944;5.382;2024-02-23T08:00:09;21.60;64.30
43651;DHT22;29247;50.944;5.382;2024-02-23T08:02:37;21.50;64.90
43651;DHT22;29247;50.944;5.382;2024-02-23T08:05:08;21.60;64.10
43651;DHT22;29247;50.944;5.382;2024-02-23T08:07:35;21.60;64.10
43651;DHT22;29247;50.944;5.382;2024-02-23T08:10:01;21.60;64.10
43651;DHT22;29247;50.944;5.382;2024-02-23T08:12:28;21.60;64.10
43651;DHT22;29247;50.944;5.382;2024-02-23T08:14:55;21.60;64.20
43651;DHT22;29247;50.944;5.382;2024-02-23T08:17:22;21.60;64.10
43651;DHT22;29247;50.944;5.382;2024-02-23T08:19:48;21.70;64.20
43651;DHT22;29247;50.944;5.382;2024-02-23T08:22:14;21.60;64.10
43651;DHT22;29247;50.944;5.382;2024-02-23T08:24:39;21.70;64.20
43651;DHT22;29247;50.944;5.382;2024-02-23T08:27:07;21.70;64.20
43651;DHT22;29247;50.944;5.382;2024-02-23T08:29:38;21.70;64.20
43651;DHT22;29247;50.944;5.382;2024-02-23T08:32:07;21.70;64.20
43651;DHT22;29247;50.944;5.382;2024-02-23T08:34:33;21.80;64.20
43651;DHT22;29247;50.944;5.382;2024-02-23T08:37:01;21.80;64.30
43651;DHT22;29247;50.944;5.382;2024-02-23T08:39:27;21.80;64.30
43651;DHT22;29247;50.944;5.382;2024-02-23T08:41:56;21.80;64.20
43651;DHT22;29247;50.944;5.382;2024-02-23T08:44:22;21.90;64.10
43651;DHT22;29247;50.944;5.382;2024-02-23T08:46:47;21.90;64.00
43651;DHT22;29247;50.944;5.382;2024-02-23T08:49:21;21.90;63.90
43651;DHT22;29247;50.944;5.382;2024-02-23T08:51:46;21.90;63.90
43651;DHT22;29247;50.944;5.382;2024-02-23T08:54:12;21.90;63.70
43651;DHT22;29247;50.944;5.382;2024-02-23T08:56:38;21.90;63.70
43651;DHT22;29247;50.944;5.382;2024-02-23T08:59:08;22.00;63.70
43651;DHT22;29247;50.944;5.382;2024-02-23T09:01:34;22.00;63.60
43651;DHT22;29247;50.944;5.382;2024-02-23T09:04:00;22.00;63.60
43651;DHT22;29247;50.944;5.382;2024-02-23T09:06:26;22.00;63.60
43651;DHT22;29247;50.944;5.382;2024-02-23T09:08:52;22.00;63.50
43651;DHT22;29247;50.944;5.382;2024-02-23T09:11:20;22.10;63.50
43651;DHT22;29247;50.944;5.382;2024-02-23T09:13:45;22.10;63.40
43651;DHT22;29247;50.944;5.382;2024-02-23T09:16:11;22.10;62.10
43651;DHT22;29247;50.944;5.382;2024-02-23T09:18:37;22.10;61.50
43651;DHT22;29247;50.944;5.382;2024-02-23T09:21:03;22.10;61.30
43651;DHT22;29247;50.944;5.382;2024-02-23T09:23:29;22.10;62.00
43651;DHT22;29247;50.944;5.382;2024-02-23T09:25:59;22.10;61.00
43651;DHT22;29247;50.944;5.382;2024-02-23T09:28:30;22.20;60.90
43651;DHT22;29247;50.944;5.382;2024-02-23T09:30:55;22.20;60.70
43651;DHT22;29247;50.944;5.382;2024-02-23T09:33:21;22.20;60.40
43651;DHT22;29247;50.944;5.382;2024-02-23T09:35:49;22.20;60.20
43651;DHT22;29247;50.944;5.382;2024-02-23T09:38:17;22.30;60.20
43651;DHT22;29247;50.944;5.382;2024-02-23T09:40:45;22.30;60.10
43651;DHT22;29247;50.944;5.382;2024-02-23T09:43:12;22.30;60.00
43651;DHT22;29247;50.944;5.382;2024-02-23T09:45:42;22.30;60.00
43651;DHT22;29247;50.944;5.382;2024-02-23T09:48:09;22.30;59.90
43651;DHT22;29247;50.944;5.382;2024-02-23T09:50:37;22.40;59.80
43651;DHT22;29247;50.944;5.382;2024-02-23T09:53:05;22.40;59.40
43651;DHT22;29247;50.944;5.382;2024-02-23T09:55:39;22.40;59.30
43651;DHT22;29247;50.944;5.382;2024-02-23T09:58:06;22.40;59.30
43651;DHT22;29247;50.944;5.382;2024-02-23T10:00:35;22.50;59.30
43651;DHT22;29247;50.944;5.382;2024-02-23T10:03:02;22.50;59.20
43651;DHT22;29247;50.944;5.382;2024-02-23T10:05:34;22.50;59.20
43651;DHT22;29247;50.944;5.382;2024-02-23T10:07:59;22.50;59.30
43651;DHT22;29247;50.944;5.382;2024-02-23T10:10:48;22.50;59.40
43651;DHT22;29247;50.944;5.382;2024-02-23T10:13:23;22.60;59.30
43651;DHT22;29247;50.944;5.382;2024-02-23T10:15:52;22.60;59.40
43651;DHT22;29247;50.944;5.382;2024-02-23T10:18:19;22.60;59.40
43651;DHT22;29247;50.944;5.382;2024-02-23T10:20:47;22.60;59.40
43651;DHT22;29247;50.944;5.382;2024-02-23T10:23:15;22.60;59.40
43651;DHT22;29247;50.944;5.382;2024-02-23T10:25:45;22.60;59.40
43651;DHT22;29247;50.944;5.382;2024-02-23T10:28:11;22.60;59.40
43651;DHT22;29247;50.944;5.382;2024-02-23T10:30:37;22.60;60.00
43651;DHT22;29247;50.944;5.382;2024-02-23T10:33:13;22.60;59.40
43651;DHT22;29247;50.944;5.382;2024-02-23T10:35:42;22.70;59.50
43651;DHT22;29247;50.944;5.382;2024-02-23T10:38:10;22.70;59.50
43651;DHT22;29247;50.944;5.382;2024-02-23T10:40:39;22.70;59.50
43651;DHT22;29247;50.944;5.382;2024-02-23T10:43:12;22.70;59.50
43651;DHT22;29247;50.944;5.382;2024-02-23T10:45:39;22.70;59.50
43651;DHT22;29247;50.944;5.382;2024-02-23T10:48:09;22.70;59.50
43651;DHT22;29247;50.944;5.382;2024-02-23T10:50:35;22.80;59.50
43651;DHT22;29247;50.944;5.382;2024-02-23T10:53:01;22.70;59.40
43651;DHT22;29247;50.944;5.382;2024-02-23T10:55:28;22.80;59.60
43651;DHT22;29247;50.944;5.382;2024-02-23T10:57:55;22.70;59.60
43651;DHT22;29247;50.944;5.382;2024-02-23T11:00:24;22.80;59.50
43651;DHT22;29247;50.944;5.382;2024-02-23T11:02:53;22.80;59.40
43651;DHT22;29247;50.944;5.382;2024-02-23T11:05:20;22.80;59.30
43651;DHT22;29247;50.944;5.382;2024-02-23T11:07:49;22.80;59.30
43651;DHT22;29247;50.944;5.382;2024-02-23T11:10:15;22.80;59.30
43651;DHT22;29247;50.944;5.382;2024-02-23T11:12:41;22.80;59.30
43651;DHT22;29247;50.944;5.382;2024-02-23T11:15:08;22.90;59.40
43651;DHT22;29247;50.944;5.382;2024-02-23T11:17:36;22.90;59.40
43651;DHT22;29247;50.944;5.382;2024-02-23T11:20:04;22.90;59.50
43651;DHT22;29247;50.944;5.382;2024-02-23T11:22:31;22.90;59.60
43651;DHT22;29247;50.944;5.382;2024-02-23T11:25:04;22.90;59.60
43651;DHT22;29247;50.944;5.382;2024-02-23T11:27:32;22.90;59.70
43651;DHT22;29247;50.944;5.382;2024-02-23T11:30:05;23.00;59.80
43651;DHT22;29247;50.944;5.382;2024-02-23T11:32:39;23.00;59.80
43651;DHT22;29247;50.944;5.382;2024-02-23T11:35:07;23.00;59.80
43651;DHT22;29247;50.944;5.382;2024-02-23T11:37:56;23.00;59.80
43651;DHT22;29247;50.944;5.382;2024-02-23T11:40:26;23.10;59.80
43651;DHT22;29247;50.944;5.382;2024-02-23T11:42:52;23.00;59.80
43651;DHT22;29247;50.944;5.382;2024-02-23T11:45:17;23.10;59.80
43651;DHT22;29247;50.944;5.382;2024-02-23T11:47:46;23.10;59.80
43651;DHT22;29247;50.944;5.382;2024-02-23T11:50:14;23.10;59.80
43651;DHT22;29247;50.944;5.382;2024-02-23T11:52:45;23.10;59.80
43651;DHT22;29247;50.944;5.382;2024-02-23T11:55:11;23.10;59.90
43651;DHT22;29247;50.944;5.382;2024-02-23T11:57:38;23.10;59.90
43651;DHT22;29247;50.944;5.382;2024-02-23T12:00:05;23.10;59.90
43651;DHT22;29247;50.944;5.382;2024-02-23T12:02:35;23.10;60.00
43651;DHT22;29247;50.944;5.382;2024-02-23T12:05:01;23.10;59.90
43651;DHT22;29247;50.944;5.382;2024-02-23T12:07:29;23.10;60.00
43651;DHT22;29247;50.944;5.382;2024-02-23T12:09:55;23.10;60.00
43651;DHT22;29247;50.944;5.382;2024-02-23T12:12:22;23.10;60.00
43651;DHT22;29247;50.944;5.382;2024-02-23T12:14:47;23.10;60.00
43651;DHT22;29247;50.944;5.382;2024-02-23T12:17:15;23.10;60.00
43651;DHT22;29247;50.944;5.382;2024-02-23T12:19:42;23.20;60.00
43651;DHT22;29247;50.944;5.382;2024-02-23T12:22:09;23.20;60.00
43651;DHT22;29247;50.944;5.382;2024-02-23T12:24:35;23.20;60.00
43651;DHT22;29247;50.944;5.382;2024-02-23T12:27:01;23.20;60.00
43651;DHT22;29247;50.944;5.382;2024-02-23T12:29:29;23.10;60.00
43651;DHT22;29247;50.944;5.382;2024-02-23T12:32:09;23.20;60.00
43651;DHT22;29247;50.944;5.382;2024-02-23T12:34:40;23.20;60.00
43651;DHT22;29247;50.944;5.382;2024-02-23T12:37:09;23.20;60.00
43651;DHT22;29247;50.944;5.382;2024-02-23T12:39:37;23.20;60.00
43651;DHT22;29247;50.944;5.382;2024-02-23T12:42:03;23.20;59.90
43651;DHT22;29247;50.944;5.382;2024-02-23T12:44:28;23.20;60.00
43651;DHT22;29247;50.944;5.382;2024-02-23T12:46:54;23.20;60.00
43651;DHT22;29247;50.944;5.382;2024-02-23T12:49:22;23.20;60.00
43651;DHT22;29247;50.944;5.382;2024-02-23T12:51:50;23.10;60.00
43651;DHT22;29247;50.944;5.382;2024-02-23T12:54:19;23.10;59.90
43651;DHT22;29247;50.944;5.382;2024-02-23T12:56:47;23.10;60.00
43651;DHT22;29247;50.944;5.382;2024-02-23T12:59:15;23.10;60.00
43651;DHT22;29247;50.944;5.382;2024-02-23T13:01:40;23.10;60.00
43651;DHT22;29247;50.944;5.382;2024-02-23T13:04:06;23.10;60.00
43651;DHT22;29247;50.944;5.382;2024-02-23T13:06:39;23.10;60.00
43651;DHT22;29247;50.944;5.382;2024-02-23T13:09:08;23.10;60.00
43651;DHT22;29247;50.944;5.382;2024-02-23T13:11:34;23.10;60.10
43651;DHT22;29247;50.944;5.382;2024-02-23T13:14:03;23.10;60.10
43651;DHT22;29247;50.944;5.382;2024-02-23T13:16:29;23.00;60.10
43651;DHT22;29247;50.944;5.382;2024-02-23T13:18:55;23.00;60.20
43651;DHT22;29247;50.944;5.382;2024-02-23T13:21:21;23.00;60.30
43651;DHT22;29247;50.944;5.382;2024-02-23T13:23:46;23.00;60.30
43651;DHT22;29247;50.944;5.382;2024-02-23T13:26:14;23.00;60.30
43651;DHT22;29247;50.944;5.382;2024-02-23T13:28:43;23.00;60.40
43651;DHT22;29247;50.944;5.382;2024-02-23T13:31:12;23.00;60.40
43651;DHT22;29247;50.944;5.382;2024-02-23T13:33:41;22.90;60.40
43651;DHT22;29247;50.944;5.382;2024-02-23T13:36:10;22.90;60.40
43651;DHT22;29247;50.944;5.382;2024-02-23T13:38:39;22.90;60.50
43651;DHT22;29247;50.944;5.382;2024-02-23T13:41:06;22.90;60.50
43651;DHT22;29247;50.944;5.382;2024-02-23T13:43:32;22.90;60.50
43651;DHT22;29247;50.944;5.382;2024-02-23T13:45:59;22.90;60.60
43651;DHT22;29247;50.944;5.382;2024-02-23T13:48:26;22.90;60.60
43651;DHT22;29247;50.944;5.382;2024-02-23T13:50:52;22.90;61.20
43651;DHT22;29247;50.944;5.382;2024-02-23T13:53:20;22.90;60.50
43651;DHT22;29247;50.944;5.382;2024-02-23T13:55:46;22.80;60.40
43651;DHT22;29247;50.944;5.382;2024-02-23T13:58:12;22.80;60.50
43651;DHT22;29247;50.944;5.382;2024-02-23T14:00:40;22.80;60.60
43651;DHT22;29247;50.944;5.382;2024-02-23T14:03:06;22.80;60.50
43651;DHT22;29247;50.944;5.382;2024-02-23T14:05:31;22.80;60.60
43651;DHT22;29247;50.944;5.382;2024-02-23T14:08:00;22.80;60.60
43651;DHT22;29247;50.944;5.382;2024-02-23T14:10:25;22.80;60.60
43651;DHT22;29247;50.944;5.382;2024-02-23T14:12:51;22.80;60.70
43651;DHT22;29247;50.944;5.382;2024-02-23T14:15:19;22.80;60.70
43651;DHT22;29247;50.944;5.382;2024-02-23T14:17:45;22.70;60.60
43651;DHT22;29247;50.944;5.382;2024-02-23T14:20:10;22.70;60.60
43651;DHT22;29247;50.944;5.382;2024-02-23T14:22:36;22.70;60.60
43651;DHT22;29247;50.944;5.382;2024-02-23T14:25:04;22.70;60.70
43651;DHT22;29247;50.944;5.382;2024-02-23T14:27:30;22.70;60.70
43651;DHT22;29247;50.944;5.382;2024-02-23T14:29:58;22.70;60.80
43651;DHT22;29247;50.944;5.382;2024-02-23T14:32:24;22.70;60.80
43651;DHT22;29247;50.944;5.382;2024-02-23T14:34:49;22.70;60.70
43651;DHT22;29247;50.944;5.382;2024-02-23T14:37:17;22.70;60.80
43651;DHT22;29247;50.944;5.382;2024-02-23T14:39:43;22.70;60.90
43651;DHT22;29247;50.944;5.382;2024-02-23T14:42:09;22.70;60.80
43651;DHT22;29247;50.944;5.382;2024-02-23T14:44:35;22.70;60.70
43651;DHT22;29247;50.944;5.382;2024-02-23T14:47:04;22.70;60.70
43651;DHT22;29247;50.944;5.382;2024-02-23T14:49:33;22.70;60.60
43651;DHT22;29247;50.944;5.382;2024-02-23T14:52:01;22.70;60.60
43651;DHT22;29247;50.944;5.382;2024-02-23T14:54:26;22.80;60.70
43651;DHT22;29247;50.944;5.382;2024-02-23T14:56:55;22.80;60.60
43651;DHT22;29247;50.944;5.382;2024-02-23T14:59:23;22.80;60.50
43651;DHT22;29247;50.944;5.382;2024-02-23T15:01:51;22.80;60.40
43651;DHT22;29247;50.944;5.382;2024-02-23T15:04:16;22.90;60.40
43651;DHT22;29247;50.944;5.382;2024-02-23T15:06:47;22.90;60.40
43651;DHT22;29247;50.944;5.382;2024-02-23T15:09:15;22.90;60.30
43651;DHT22;29247;50.944;5.382;2024-02-23T15:11:40;22.90;60.30
43651;DHT22;29247;50.944;5.382;2024-02-23T15:14:06;23.00;60.30
43651;DHT22;29247;50.944;5.382;2024-02-23T15:16:34;23.00;60.30
43651;DHT22;29247;50.944;5.382;2024-02-23T15:19:02;23.00;60.30
43651;DHT22;29247;50.944;5.382;2024-02-23T15:21:28;23.10;60.30
43651;DHT22;29247;50.944;5.382;2024-02-23T15:23:53;23.10;60.30
43651;DHT22;29247;50.944;5.382;2024-02-23T15:26:19;23.10;60.20
43651;DHT22;29247;50.944;5.382;2024-02-23T15:28:45;23.20;60.20
43651;DHT22;29247;50.944;5.382;2024-02-23T15:31:12;23.20;60.10